Terminal Aerodrome Forecast
Issued by NWS

Home | Current Version | Previous Version | Graphics & Text | Print | Product List | Glossary On
Versions: 1 2 3 4 5 6 7 8 9 10 11 12 13 14 15 16 17 18 19 20 21 22 23 24 25 26 27 28 29 30 31
774
FTUS45 KGGW 131720
TAFOLF
TAF
KOLF 131720Z 1318/1418 VRB06KT 4SM FZRA BKN040
     FM132000 26008KT P6SM VCSH OVC090
     FM140000 27011KT P6SM BKN110=

USA.gov is the U.S. government's official web portal to all federal, state and local government web resources and services.